עמוד ראשי
METAR-TAF:

שדות תעופה :

סלוניקי, יוון

נמל התעופה הבינלאומי סלוניקי מקדוניה

קו רוחב: 40-31N, קו אורך: 022-58E, גובה: 8מטר

תצפית מזג אוויר נוכחית

הדו"ח נערך לפני 25דקות, בשעה 19:50 UTC
רוח 11קשר מכיוון צפון/צפון-מערב
טמפרטורת 23 צלסיוס
לחות 47%
לחץ 1012 hPa
ראות 10 קילומטר או יותר
מעט עננים בגובה 1800רגל

METAR: LGTS 261950Z 34011KT 9999 FEW018 23/11 Q1012 NOSIG

זמן: 23:15 (20:15 UTC)

תחזית

הדו"ח נערך לפני 3 שעות ו 15דקות, בשעה 17:00 UTC
תחזית בתוקף מ 26 ב 18 UTC עד 27 ב 18 UTC
רוח 20קשר מכיוון צפון/צפון-מערב עם משבים עד 30קשר
ראות 10 קילומטר או יותר
מעט עננים בגובה 3000רגל
יעשה מ
26 ב 21 UTC עד 26 ב 23 UTC
רוח 15קשר מכיוון צפון/צפון-מערב עם משבים עד 25קשר
יעשה מ
27 ב 06 UTC עד 27 ב 08 UTC
רוח 15קשר מכיוון צפון-מערב

TAF: LGTS 261700Z 2618/2718 34020G30KT 9999 FEW030 BECMG 2621/2623 33015G25KT BECMG 2706/2708 31015KT

METAR-TAF

תצפיות ותחזיות מזג אוויר לגבי יותר מ- 4,000 שדות תעופה ברחבי העולם. דוחות METAR ו- TAF.

התחנות הזמינות מסומנות בנקודות צהובות ואדומות על גבי המפה.

העבר את העכבר לנקודה הצבעונית על מנת לראות את שם התחנה.

לאחר מכן, לחץ כדי לראות את תוכן ואת תחזיות מזג האוויר.

כדי לשנות את המפה: לחץ על הכפתורים הירוקים עם הפלוס השחור כדי להתקרב; על הכפתור הירוק עם המקף כדי להתרחק; או בחיצים הירוקים למפות סמוכות.


METAR-TAF: